createdAt,value
2023-04-29T00:00:50.201Z,96.5
2023-04-29T00:05:50.353Z,97.0
2023-04-29T00:10:50.216Z,97.0
2023-04-29T00:15:50.199Z,97.0
2023-04-29T00:20:50.214Z,97.0
2023-04-29T00:25:50.215Z,97.0
2023-04-29T00:30:50.222Z,97.0
2023-04-29T00:35:50.221Z,97.5
2023-04-29T00:40:50.203Z,97.5
2023-04-29T00:45:50.229Z,97.0
2023-04-29T00:50:50.216Z,97.0
2023-04-29T00:55:50.214Z,97.0
2023-04-29T01:00:50.223Z,96.5
2023-04-29T01:05:50.216Z,96.5
2023-04-29T01:10:50.228Z,96.5
2023-04-29T01:15:50.286Z,96.5
2023-04-29T01:20:50.233Z,97.0
2023-04-29T01:25:50.236Z,97.0
2023-04-29T01:40:50.234Z,97.0
2023-04-29T01:45:50.258Z,97.0
2023-04-29T01:50:50.236Z,97.0
2023-04-29T01:55:50.237Z,97.5
2023-04-29T02:00:50.280Z,97.5
2023-04-29T02:05:50.246Z,97.5
2023-04-29T02:10:50.243Z,97.5
2023-04-29T02:15:50.257Z,98.0
2023-04-29T02:20:50.255Z,98.0
2023-04-29T02:25:50.250Z,98.5
2023-04-29T02:35:50.257Z,98.5
2023-04-29T02:40:50.335Z,99.0
2023-04-29T02:45:50.284Z,99.0
2023-04-29T02:50:50.264Z,99.0
2023-04-29T02:55:50.322Z,99.0
2023-04-29T03:01:03.674Z,99.5
2023-04-29T03:05:50.284Z,99.5
2023-04-29T03:10:50.282Z,99.5
2023-04-29T03:15:50.275Z,99.5
2023-04-29T03:20:50.350Z,100.0
2023-04-29T03:25:50.366Z,100.0
2023-04-29T03:30:50.341Z,100.0
2023-04-29T03:35:50.275Z,100.0
2023-04-29T03:40:50.289Z,100.0
2023-04-29T03:45:50.320Z,100.0
2023-04-29T03:50:50.289Z,100.0
2023-04-29T03:55:50.309Z,100.0
2023-04-29T04:05:50.408Z,100.0
2023-04-29T04:10:50.279Z,100.0
2023-04-29T04:15:50.364Z,100.0
2023-04-29T04:25:50.282Z,100.0
2023-04-29T04:31:03.647Z,100.0
2023-04-29T04:35:50.297Z,100.0
2023-04-29T04:41:03.654Z,100.0
2023-04-29T04:45:50.365Z,99.5
2023-04-29T04:50:50.300Z,99.5
2023-04-29T04:55:50.298Z,99.5
2023-04-29T05:00:50.382Z,99.5
2023-04-29T05:05:50.302Z,99.0
2023-04-29T05:10:50.329Z,99.0
2023-04-29T05:15:50.311Z,99.0
2023-04-29T05:20:50.318Z,99.0
2023-04-29T05:25:50.317Z,99.0
2023-04-29T05:30:50.338Z,99.0
2023-04-29T05:35:50.315Z,99.0
2023-04-29T05:40:50.321Z,99.0
2023-04-29T05:45:50.322Z,99.0
2023-04-29T05:50:50.326Z,98.5
2023-04-29T06:00:50.389Z,98.5
2023-04-29T06:05:50.474Z,98.0
2023-04-29T06:10:50.324Z,98.0
2023-04-29T06:15:50.416Z,98.0
2023-04-29T06:20:50.336Z,97.5
2023-04-29T06:25:51.669Z,97.0
2023-04-29T06:30:50.379Z,97.0
2023-04-29T06:35:50.334Z,97.0
2023-04-29T06:40:50.343Z,96.5
2023-04-29T06:45:50.341Z,95.5
2023-04-29T06:55:51.063Z,95.0
2023-04-29T07:00:50.392Z,95.0
2023-04-29T07:05:50.354Z,94.5
2023-04-29T07:10:50.352Z,94.5
2023-04-29T07:15:50.373Z,93.5
2023-04-29T07:20:50.358Z,93.0
2023-04-29T07:25:50.381Z,93.0
2023-04-29T07:30:50.424Z,93.0
2023-04-29T07:35:50.371Z,93.0
2023-04-29T07:40:50.364Z,92.5
2023-04-29T07:45:50.398Z,91.5
2023-04-29T07:50:50.383Z,92.0
2023-04-29T07:55:50.387Z,90.5
2023-04-29T08:00:50.380Z,90.5
2023-04-29T08:05:50.475Z,90.0
2023-04-29T08:10:50.380Z,90.0
2023-04-29T08:15:50.439Z,88.5
2023-04-29T08:20:50.381Z,88.5
2023-04-29T08:25:50.389Z,87.5
2023-04-29T08:30:50.391Z,87.0
2023-04-29T08:35:50.381Z,86.0
2023-04-29T08:40:50.388Z,84.0
2023-04-29T08:45:50.431Z,63.0
2023-04-29T08:50:50.972Z,62.5
2023-04-29T08:55:50.410Z,62.5
2023-04-29T09:00:50.482Z,61.5
2023-04-29T09:05:50.415Z,61.5
2023-04-29T09:10:50.407Z,61.5
2023-04-29T09:15:50.416Z,59.5
2023-04-29T09:20:50.409Z,59.0
2023-04-29T09:25:50.421Z,59.5
2023-04-29T09:30:50.423Z,58.5
2023-04-29T09:35:50.426Z,59.0
2023-04-29T09:40:58.179Z,58.0
2023-04-29T09:45:50.445Z,57.0
2023-04-29T09:50:50.481Z,56.0
2023-04-29T09:55:50.429Z,57.5
2023-04-29T10:00:50.430Z,56.0
2023-04-29T10:05:50.438Z,55.0
2023-04-29T10:10:50.468Z,53.0
2023-04-29T10:15:50.493Z,56.0
2023-04-29T10:20:50.439Z,53.5
2023-04-29T10:25:50.452Z,52.5
2023-04-29T10:30:50.461Z,53.0
2023-04-29T10:35:50.443Z,52.5
2023-04-29T10:40:50.451Z,53.5
2023-04-29T10:45:50.446Z,53.5
2023-04-29T10:50:50.454Z,53.5
2023-04-29T10:55:50.453Z,52.5
2023-04-29T11:00:50.458Z,52.5
2023-04-29T11:05:50.463Z,53.0
2023-04-29T11:10:50.467Z,53.0
2023-04-29T11:15:50.470Z,51.5
2023-04-29T11:20:50.463Z,52.0
2023-04-29T11:25:50.477Z,51.5
2023-04-29T11:30:50.469Z,53.0
2023-04-29T11:35:50.470Z,52.5
2023-04-29T11:40:50.476Z,53.0
2023-04-29T11:45:50.521Z,53.5
2023-04-29T11:50:50.593Z,54.0
2023-04-29T11:55:50.479Z,53.0
2023-04-29T12:00:50.483Z,53.0
2023-04-29T12:05:50.571Z,51.5
2023-04-29T12:10:50.493Z,52.0
2023-04-29T12:15:50.579Z,51.5
2023-04-29T12:20:50.499Z,49.5
2023-04-29T12:25:50.487Z,49.5
2023-04-29T12:30:50.504Z,50.5
2023-04-29T12:35:50.496Z,49.5
2023-04-29T12:40:50.500Z,49.0
2023-04-29T12:45:50.528Z,49.0
2023-04-29T12:50:50.505Z,49.5
2023-04-29T12:55:50.679Z,48.0
2023-04-29T13:00:50.557Z,48.0
2023-04-29T13:05:50.515Z,48.0
2023-04-29T13:10:50.520Z,46.5
2023-04-29T13:15:50.535Z,45.5
2023-04-29T13:20:52.997Z,46.5
2023-04-29T13:25:51.005Z,47.0
2023-04-29T13:30:50.516Z,46.0
2023-04-29T13:35:50.528Z,46.0
2023-04-29T13:40:51.597Z,46.0
2023-04-29T13:45:52.319Z,45.0
2023-04-29T13:51:29.302Z,45.0
2023-04-29T13:56:41.022Z,45.0
2023-04-29T14:05:50.539Z,57.0
2023-04-29T14:10:50.544Z,57.5
2023-04-29T14:15:50.573Z,57.0
2023-04-29T14:20:50.558Z,59.0
2023-04-29T14:25:50.564Z,57.5
2023-04-29T14:30:50.554Z,58.5
2023-04-29T14:35:50.558Z,57.0
2023-04-29T14:40:50.558Z,57.0
2023-04-29T14:45:50.582Z,59.0
2023-04-29T14:50:50.558Z,57.5
2023-04-29T14:55:50.580Z,56.5
2023-04-29T15:00:50.567Z,53.0
2023-04-29T15:05:50.582Z,52.5
2023-04-29T15:10:50.569Z,51.0
2023-04-29T15:15:50.621Z,51.5
2023-04-29T15:20:50.571Z,50.5
2023-04-29T15:25:50.578Z,51.5
2023-04-29T15:30:50.578Z,52.0
2023-04-29T15:35:50.591Z,52.0
2023-04-29T15:40:50.621Z,53.5
2023-04-29T15:45:50.627Z,54.5
2023-04-29T15:50:50.585Z,54.5
2023-04-29T15:55:50.630Z,55.0
2023-04-29T16:00:50.659Z,54.0
2023-04-29T16:05:50.598Z,55.0
2023-04-29T16:10:50.626Z,55.0
2023-04-29T16:15:50.597Z,55.5
2023-04-29T16:20:50.600Z,55.0
2023-04-29T16:25:50.608Z,56.5
2023-04-29T16:30:50.605Z,57.0
2023-04-29T16:35:50.607Z,57.5
2023-04-29T16:40:50.895Z,58.5
2023-04-29T16:45:50.625Z,59.0
2023-04-29T16:50:50.829Z,60.0
2023-04-29T16:55:50.620Z,60.0
2023-04-29T17:00:50.626Z,61.0
2023-04-29T17:05:50.620Z,61.0
2023-04-29T17:10:50.616Z,61.0
2023-04-29T17:15:50.635Z,62.5
2023-04-29T17:20:51.117Z,62.5
2023-04-29T17:25:50.625Z,63.5
2023-04-29T17:30:50.619Z,64.5
2023-04-29T17:35:50.623Z,65.0
2023-04-29T17:40:50.627Z,64.5
2023-04-29T17:45:50.690Z,64.5
2023-04-29T17:50:50.623Z,65.0
2023-04-29T17:55:50.645Z,65.5
2023-04-29T18:00:50.670Z,66.5
2023-04-29T18:05:50.629Z,66.5
2023-04-29T18:10:50.650Z,66.5
2023-04-29T18:15:50.636Z,67.0
2023-04-29T18:20:50.634Z,67.0
2023-04-29T18:25:50.635Z,67.5
2023-04-29T18:30:50.638Z,68.0
2023-04-29T18:35:50.644Z,68.0
2023-04-29T18:40:50.647Z,68.5
2023-04-29T18:45:50.689Z,69.0
2023-04-29T18:50:50.650Z,69.5
2023-04-29T18:55:50.767Z,69.5
2023-04-29T19:00:50.644Z,70.5
2023-04-29T19:05:50.654Z,71.0
2023-04-29T19:10:50.658Z,72.0
2023-04-29T19:15:50.779Z,72.0
2023-04-29T19:20:50.646Z,71.5
2023-04-29T19:25:50.649Z,70.0
2023-04-29T19:30:50.648Z,69.5
2023-04-29T19:35:50.656Z,69.5
2023-04-29T19:40:50.659Z,70.0
2023-04-29T19:45:50.701Z,70.0
2023-04-29T19:50:50.659Z,70.0
2023-04-29T19:55:51.834Z,71.0
2023-04-29T20:00:50.692Z,71.0
2023-04-29T20:05:50.668Z,71.5
2023-04-29T20:10:50.668Z,72.0
2023-04-29T20:15:50.656Z,72.5
2023-04-29T20:20:50.677Z,73.0
2023-04-29T20:25:50.663Z,73.0
2023-04-29T20:30:50.663Z,73.5
2023-04-29T20:35:50.723Z,73.5
2023-04-29T20:40:50.664Z,73.5
2023-04-29T20:45:50.691Z,73.5
2023-04-29T20:50:50.723Z,74.0
2023-04-29T20:55:50.681Z,74.5
2023-04-29T21:00:50.679Z,75.0
2023-04-29T21:05:50.684Z,75.5
2023-04-29T21:10:50.683Z,76.0
2023-04-29T21:15:50.708Z,76.5
2023-04-29T21:20:50.739Z,77.0
2023-04-29T21:25:50.687Z,77.0
2023-04-29T21:30:50.679Z,77.5
2023-04-29T21:35:50.682Z,78.5
2023-04-29T21:40:50.770Z,78.5
2023-04-29T21:45:50.685Z,78.5
2023-04-29T21:50:50.690Z,79.0
2023-04-29T21:55:50.693Z,79.0
2023-04-29T22:00:50.707Z,79.5
2023-04-29T22:05:50.687Z,80.0
2023-04-29T22:10:50.697Z,80.0
2023-04-29T22:15:50.691Z,80.5
2023-04-29T22:20:50.700Z,81.5
2023-04-29T22:25:50.688Z,82.0
2023-04-29T22:30:50.692Z,83.0
2023-04-29T22:35:50.702Z,83.5
2023-04-29T22:40:50.698Z,85.0
2023-04-29T22:45:50.742Z,85.5
2023-04-29T22:50:50.695Z,87.0
2023-04-29T22:55:50.721Z,87.5
2023-04-29T23:00:50.710Z,88.0
2023-04-29T23:05:50.722Z,88.0
2023-04-29T23:10:50.758Z,88.0
2023-04-29T23:15:50.741Z,89.0
2023-04-29T23:20:50.718Z,88.5
2023-04-29T23:25:50.724Z,89.0
2023-04-29T23:30:50.717Z,88.5
2023-04-29T23:35:50.718Z,89.0
2023-04-29T23:40:50.732Z,89.0
2023-04-29T23:45:50.777Z,88.5
2023-04-29T23:50:50.730Z,88.5
2023-04-29T23:55:50.726Z,88.5
